createdAt,value
2022-10-31T00:01:22.234Z,60.13
2022-10-31T00:03:48.997Z,82.53
2022-10-31T00:06:19.113Z,77.67
2022-10-31T00:08:47.461Z,93.50
2022-10-31T00:11:14.563Z,100.70
2022-10-31T00:13:41.394Z,97.83
2022-10-31T00:16:15.361Z,107.93
2022-10-31T00:18:42.138Z,113.90
2022-10-31T00:21:09.022Z,103.97
2022-10-31T00:23:35.900Z,104.97
2022-10-31T00:26:04.023Z,102.67
2022-10-31T00:28:31.919Z,87.23
2022-10-31T00:31:02.623Z,77.17
2022-10-31T00:33:29.617Z,65.13
2022-10-31T00:35:57.832Z,60.93
2022-10-31T00:38:24.560Z,55.83
2022-10-31T00:40:51.319Z,56.40
2022-10-31T00:43:18.178Z,58.20
2022-10-31T00:45:45.022Z,61.30
2022-10-31T00:48:12.040Z,59.63
2022-10-31T00:50:39.572Z,55.47
2022-10-31T00:53:06.932Z,54.13
2022-10-31T00:55:34.180Z,44.53
2022-10-31T00:58:01.535Z,42.13
2022-10-31T01:00:28.980Z,39.77
2022-10-31T01:02:55.799Z,42.40
2022-10-31T01:05:22.762Z,40.90
2022-10-31T01:07:49.527Z,39.60
2022-10-31T01:10:16.378Z,36.50
2022-10-31T01:12:45.712Z,39.07
2022-10-31T01:15:15.320Z,34.57
2022-10-31T01:17:42.232Z,33.57
2022-10-31T01:20:10.065Z,30.93
2022-10-31T01:22:36.860Z,30.37
2022-10-31T01:25:04.027Z,30.77
2022-10-31T01:27:32.594Z,30.07
2022-10-31T01:29:59.413Z,30.60
2022-10-31T01:32:26.275Z,30.03
2022-10-31T01:34:52.956Z,28.53
2022-10-31T01:37:19.661Z,29.00
2022-10-31T01:39:46.352Z,30.37
2022-10-31T01:42:20.692Z,29.87
2022-10-31T01:44:55.305Z,31.53
2022-10-31T01:47:34.892Z,32.33
2022-10-31T01:50:07.162Z,34.43
2022-10-31T01:52:49.311Z,38.90
2022-10-31T01:55:38.850Z,55.50
2022-10-31T02:00:49.205Z,125.27
2022-10-31T02:03:17.263Z,128.50
2022-10-31T02:05:44.684Z,95.47
2022-10-31T02:08:31.722Z,81.07
2022-10-31T02:11:00.352Z,66.33
2022-10-31T02:13:28.711Z,81.40
2022-10-31T02:15:58.549Z,68.97
2022-10-31T02:18:27.942Z,62.20
2022-10-31T02:21:19.784Z,63.33
2022-10-31T02:24:20.482Z,57.87
2022-10-31T02:26:55.974Z,50.93
2022-10-31T02:29:58.355Z,46.13
2022-10-31T02:33:06.278Z,42.40
2022-10-31T02:35:41.717Z,37.63
2022-10-31T02:38:17.843Z,32.87
2022-10-31T02:41:08.514Z,31.70
2022-10-31T02:43:45.075Z,28.47
2022-10-31T02:46:18.951Z,28.47
2022-10-31T02:48:47.951Z,27.23
2022-10-31T02:51:15.239Z,28.27
2022-10-31T02:53:41.919Z,25.63
2022-10-31T02:56:13.998Z,26.70
2022-10-31T02:58:51.216Z,26.17
2022-10-31T03:02:02.270Z,25.40
2022-10-31T03:04:59.518Z,25.30
2022-10-31T03:07:48.156Z,26.17
2022-10-31T03:10:22.867Z,26.23
2022-10-31T03:13:04.465Z,27.07
2022-10-31T03:15:41.520Z,27.17
2022-10-31T03:18:34.111Z,27.00
2022-10-31T03:21:28.454Z,28.03
2022-10-31T03:23:58.181Z,30.07
2022-10-31T03:26:26.042Z,30.83
2022-10-31T03:29:06.982Z,29.10
2022-10-31T03:31:40.037Z,28.97
2022-10-31T03:34:08.704Z,29.37
2022-10-31T03:36:38.622Z,28.43
2022-10-31T03:39:08.683Z,28.03
2022-10-31T03:41:41.654Z,28.47
2022-10-31T03:44:14.805Z,27.13
2022-10-31T03:46:43.168Z,27.37
2022-10-31T03:49:10.514Z,26.53
2022-10-31T03:51:58.601Z,25.50
2022-10-31T03:54:50.998Z,26.87
2022-10-31T03:57:25.377Z,27.10
2022-10-31T03:59:58.310Z,28.00
2022-10-31T04:02:30.223Z,26.17
2022-10-31T04:04:57.757Z,26.97
2022-10-31T04:07:29.322Z,28.10
2022-10-31T04:09:58.512Z,28.60
2022-10-31T04:12:27.269Z,27.60
2022-10-31T04:14:55.047Z,27.93
2022-10-31T04:17:26.134Z,28.67
2022-10-31T04:19:52.837Z,27.87
2022-10-31T04:22:19.634Z,26.97
2022-10-31T04:24:46.385Z,24.90
2022-10-31T04:27:13.088Z,24.77
2022-10-31T04:29:39.779Z,24.90
2022-10-31T04:32:06.508Z,24.03
2022-10-31T04:34:33.202Z,23.87
2022-10-31T04:36:59.924Z,23.50
2022-10-31T04:39:26.904Z,22.90
2022-10-31T04:41:53.941Z,24.47
2022-10-31T04:44:20.754Z,24.10
2022-10-31T04:46:47.581Z,24.53
2022-10-31T04:49:14.445Z,24.17
2022-10-31T04:51:41.293Z,23.57
2022-10-31T04:54:08.110Z,23.43
2022-10-31T04:56:34.846Z,22.37
2022-10-31T04:59:01.686Z,23.57
2022-10-31T05:01:29.046Z,24.23
2022-10-31T05:03:55.990Z,23.83
2022-10-31T05:06:22.729Z,22.67
2022-10-31T05:08:49.443Z,22.43
2022-10-31T05:11:16.236Z,22.73
2022-10-31T05:13:42.996Z,22.33
2022-10-31T05:16:09.703Z,22.03
2022-10-31T05:18:36.413Z,22.87
2022-10-31T05:21:03.185Z,21.77
2022-10-31T05:23:29.866Z,20.13
2022-10-31T05:25:56.582Z,21.80
2022-10-31T05:28:23.422Z,21.67
2022-10-31T05:30:50.675Z,21.00
2022-10-31T05:33:17.492Z,21.47
2022-10-31T05:35:44.279Z,20.30
2022-10-31T05:38:10.974Z,19.23
2022-10-31T05:40:37.662Z,19.87
2022-10-31T05:43:04.460Z,20.37
2022-10-31T05:45:31.297Z,22.00
2022-10-31T05:48:00.549Z,21.80
2022-10-31T05:50:29.651Z,22.33
2022-10-31T05:53:01.750Z,21.53
2022-10-31T05:55:29.641Z,23.40
2022-10-31T05:57:56.773Z,31.93
2022-10-31T06:00:25.511Z,39.40
2022-10-31T06:03:03.268Z,63.77
2022-10-31T06:05:30.706Z,58.10
2022-10-31T06:07:58.717Z,56.23
2022-10-31T06:10:26.676Z,52.00
2022-10-31T06:12:53.570Z,49.03
2022-10-31T06:15:24.207Z,41.97
2022-10-31T06:18:05.684Z,38.77
2022-10-31T06:20:33.825Z,32.80
2022-10-31T06:23:01.342Z,32.67
2022-10-31T06:25:28.740Z,29.10
2022-10-31T06:27:55.974Z,29.07
2022-10-31T06:30:22.808Z,32.10
2022-10-31T06:32:50.697Z,33.73
2022-10-31T06:35:17.816Z,31.27
2022-10-31T06:37:51.312Z,31.67
2022-10-31T06:40:18.200Z,32.97
2022-10-31T06:42:44.890Z,34.73
2022-10-31T06:45:11.592Z,37.47
2022-10-31T06:47:56.875Z,34.93
2022-10-31T06:50:25.023Z,35.40
2022-10-31T06:52:53.446Z,39.53
2022-10-31T06:55:23.593Z,36.63
2022-10-31T06:57:52.037Z,65.47
2022-10-31T07:00:18.978Z,87.30
2022-10-31T07:02:54.461Z,78.43
2022-10-31T07:05:21.195Z,71.67
2022-10-31T07:07:48.328Z,62.17
2022-10-31T07:10:15.196Z,64.80
2022-10-31T07:12:42.114Z,63.13
2022-10-31T07:15:09.149Z,65.43
2022-10-31T07:17:35.932Z,62.20
2022-10-31T07:20:02.769Z,55.97
2022-10-31T07:22:39.229Z,44.93
2022-10-31T07:25:06.584Z,38.30
2022-10-31T07:27:42.788Z,40.03
2022-10-31T07:30:11.960Z,36.60
2022-10-31T07:32:43.681Z,35.87
2022-10-31T07:35:12.803Z,32.27
2022-10-31T07:37:39.850Z,30.53
2022-10-31T07:40:08.867Z,26.83
2022-10-31T07:42:40.372Z,25.50
2022-10-31T07:45:09.783Z,25.03
2022-10-31T07:47:47.244Z,23.83
2022-10-31T07:50:16.568Z,23.80
2022-10-31T07:52:43.485Z,25.13
2022-10-31T07:55:10.371Z,24.50
2022-10-31T07:57:40.472Z,26.67
2022-10-31T08:00:11.025Z,33.80
2022-10-31T08:02:37.818Z,28.43
2022-10-31T08:05:04.785Z,27.47
2022-10-31T08:07:37.957Z,26.87
2022-10-31T08:10:05.547Z,30.03
2022-10-31T08:12:32.304Z,24.53
2022-10-31T08:14:59.048Z,22.27
2022-10-31T08:17:25.774Z,21.53
2022-10-31T08:19:52.477Z,21.10
2022-10-31T08:22:19.218Z,21.77
2022-10-31T08:24:46.039Z,21.30
2022-10-31T08:27:12.902Z,22.40
2022-10-31T08:29:39.608Z,21.97
2022-10-31T08:32:06.318Z,21.63
2022-10-31T08:34:33.158Z,20.97
2022-10-31T08:36:59.892Z,22.90
2022-10-31T08:39:26.654Z,22.10
2022-10-31T08:41:53.536Z,22.83
2022-10-31T08:44:20.267Z,23.57
2022-10-31T08:46:47.020Z,23.73
2022-10-31T08:49:13.719Z,24.90
2022-10-31T08:51:40.566Z,24.63
2022-10-31T08:54:07.293Z,25.07
2022-10-31T08:56:34.063Z,25.33
2022-10-31T08:59:00.931Z,27.23
2022-10-31T09:01:27.732Z,27.10
2022-10-31T09:03:54.604Z,28.43
2022-10-31T09:06:21.387Z,28.17
2022-10-31T09:08:48.283Z,29.37
2022-10-31T09:11:18.517Z,28.10
2022-10-31T09:13:45.237Z,28.77
2022-10-31T09:16:12.070Z,29.90
2022-10-31T09:18:38.790Z,29.07
2022-10-31T09:21:05.700Z,30.83
2022-10-31T09:23:32.979Z,30.67
2022-10-31T09:26:01.676Z,29.13
2022-10-31T09:28:28.396Z,28.80
2022-10-31T09:30:55.676Z,30.60
2022-10-31T09:33:22.833Z,30.00
2022-10-31T09:35:49.990Z,28.90
2022-10-31T09:38:21.557Z,28.07
2022-10-31T09:41:06.874Z,29.40
2022-10-31T09:43:45.621Z,27.50
2022-10-31T09:46:16.494Z,29.40
2022-10-31T09:49:02.036Z,30.53
2022-10-31T09:52:00.479Z,29.17
2022-10-31T09:54:43.714Z,28.10
2022-10-31T09:57:15.410Z,28.47
2022-10-31T09:59:44.577Z,28.30
2022-10-31T10:02:28.809Z,28.80
2022-10-31T10:05:01.887Z,28.20
2022-10-31T10:07:56.270Z,27.17
2022-10-31T10:10:41.769Z,27.13
2022-10-31T10:13:20.825Z,29.07
2022-10-31T10:16:08.964Z,29.33
2022-10-31T10:19:13.997Z,28.50
2022-10-31T10:21:55.681Z,28.48
2022-10-31T10:24:40.702Z,28.02
2022-10-31T10:27:25.694Z,27.83
2022-10-31T10:30:05.163Z,27.15
2022-10-31T10:32:42.207Z,28.15
2022-10-31T10:35:21.472Z,27.60
2022-10-31T10:37:51.943Z,26.77
2022-10-31T10:40:19.784Z,25.38
2022-10-31T10:43:18.212Z,24.70
2022-10-31T10:46:11.729Z,23.95
2022-10-31T10:48:44.041Z,23.70
2022-10-31T10:51:58.233Z,23.92
2022-10-31T10:55:03.528Z,22.13
2022-10-31T10:57:43.993Z,21.65
2022-10-31T11:00:22.460Z,23.08
2022-10-31T11:02:49.926Z,22.55
2022-10-31T11:05:29.060Z,20.75
2022-10-31T11:07:55.897Z,21.35
2022-10-31T11:10:22.924Z,20.85
2022-10-31T11:13:24.325Z,21.77
2022-10-31T11:15:59.687Z,20.42
2022-10-31T11:18:28.862Z,20.60
2022-10-31T11:20:58.484Z,20.73
2022-10-31T11:23:27.518Z,19.83
2022-10-31T11:25:59.321Z,19.73
2022-10-31T11:28:27.717Z,20.77
2022-10-31T11:30:58.638Z,19.63
2022-10-31T11:33:33.647Z,18.73
2022-10-31T11:36:03.531Z,19.35
2022-10-31T11:38:41.531Z,18.33
2022-10-31T11:41:18.203Z,19.80
2022-10-31T11:43:53.038Z,20.67
2022-10-31T11:46:35.649Z,20.15
2022-10-31T11:49:02.945Z,19.52
2022-10-31T11:51:35.877Z,17.55
2022-10-31T11:54:05.075Z,18.15
2022-10-31T11:56:42.190Z,19.65
2022-10-31T11:59:30.051Z,19.10
2022-10-31T12:02:01.940Z,16.80
2022-10-31T12:04:42.779Z,18.33
2022-10-31T12:07:09.668Z,19.33
2022-10-31T12:09:38.088Z,18.33
2022-10-31T12:12:39.354Z,17.25
2022-10-31T12:15:39.585Z,17.55
2022-10-31T12:18:25.219Z,16.50
2022-10-31T12:20:58.140Z,16.48
2022-10-31T12:23:30.504Z,15.38
2022-10-31T12:26:23.866Z,15.30
2022-10-31T12:29:25.814Z,15.70
2022-10-31T12:32:23.533Z,16.65
2022-10-31T12:35:02.786Z,17.35
2022-10-31T12:37:49.604Z,16.42
2022-10-31T12:40:44.053Z,17.75
2022-10-31T12:43:37.006Z,17.33
2022-10-31T12:46:06.355Z,17.67
2022-10-31T12:49:16.158Z,17.48
2022-10-31T12:52:10.759Z,16.77
2022-10-31T12:54:59.211Z,16.05
2022-10-31T12:57:44.150Z,16.38
2022-10-31T13:00:19.139Z,15.48
2022-10-31T13:03:01.828Z,16.10
2022-10-31T13:05:44.404Z,15.43
2022-10-31T13:08:13.006Z,15.35
2022-10-31T13:11:07.471Z,15.93
2022-10-31T13:13:57.244Z,14.80
2022-10-31T13:16:28.997Z,15.20
2022-10-31T13:19:01.810Z,15.55
2022-10-31T13:21:35.441Z,15.57
2022-10-31T13:24:09.314Z,15.52
2022-10-31T13:26:44.482Z,15.43
2022-10-31T13:29:32.999Z,15.93
2022-10-31T13:32:05.047Z,15.90
2022-10-31T13:34:34.770Z,16.38
2022-10-31T13:37:25.479Z,15.45
2022-10-31T13:40:25.830Z,15.55
2022-10-31T13:43:15.502Z,15.82
2022-10-31T13:45:56.274Z,15.88
2022-10-31T13:48:29.385Z,15.32
2022-10-31T13:51:22.663Z,15.80
2022-10-31T13:53:52.365Z,15.88
2022-10-31T13:56:23.981Z,14.85
2022-10-31T13:59:20.606Z,16.33
2022-10-31T14:01:56.997Z,14.80
2022-10-31T14:04:26.714Z,16.05
2022-10-31T14:06:53.475Z,14.90
2022-10-31T14:09:33.559Z,15.30
2022-10-31T14:12:10.539Z,15.02
2022-10-31T14:14:51.353Z,15.60
2022-10-31T14:17:24.947Z,16.05
2022-10-31T14:20:10.232Z,15.77
2022-10-31T14:22:42.559Z,15.10
2022-10-31T14:25:35.574Z,16.67
2022-10-31T14:28:23.647Z,17.08
2022-10-31T14:30:59.470Z,16.33
2022-10-31T14:33:28.827Z,17.15
2022-10-31T14:36:17.435Z,19.27
2022-10-31T14:39:11.455Z,16.98
2022-10-31T14:41:50.121Z,16.33
2022-10-31T14:44:43.631Z,16.42
2022-10-31T14:47:40.225Z,15.93
2022-10-31T14:50:44.759Z,15.65
2022-10-31T14:53:31.686Z,15.13
2022-10-31T14:56:04.244Z,14.70
2022-10-31T14:58:46.689Z,14.35
2022-10-31T15:01:40.832Z,14.98
2022-10-31T15:04:25.258Z,14.68
2022-10-31T15:07:20.428Z,14.30
2022-10-31T15:10:02.755Z,13.32
2022-10-31T15:12:32.696Z,14.07
2022-10-31T15:15:16.179Z,15.43
2022-10-31T15:17:46.731Z,17.45
2022-10-31T15:20:18.281Z,15.95
2022-10-31T15:22:45.180Z,17.98
2022-10-31T15:25:20.720Z,18.45
2022-10-31T15:27:49.204Z,20.52
2022-10-31T15:30:24.595Z,23.67
2022-10-31T15:32:58.235Z,22.95
2022-10-31T15:35:31.170Z,24.10
2022-10-31T15:38:00.284Z,24.77
2022-10-31T15:40:27.922Z,26.88
2022-10-31T15:42:57.182Z,28.73
2022-10-31T15:45:27.800Z,32.45
2022-10-31T15:48:03.967Z,32.13
2022-10-31T15:50:39.212Z,31.75
2022-10-31T15:53:15.204Z,29.25
2022-10-31T15:55:50.076Z,30.33
2022-10-31T15:58:18.395Z,29.77
2022-10-31T16:00:45.374Z,26.02
2022-10-31T16:03:12.042Z,24.80
2022-10-31T16:05:48.201Z,22.85
2022-10-31T16:08:30.086Z,21.85
2022-10-31T16:11:07.269Z,21.35
2022-10-31T16:13:37.283Z,22.38
2022-10-31T16:19:05.859Z,22.08
2022-10-31T16:21:38.500Z,23.45
2022-10-31T16:24:20.783Z,30.00
2022-10-31T16:26:53.660Z,29.02
2022-10-31T16:29:33.105Z,27.42
2022-10-31T16:31:59.963Z,29.17
2022-10-31T16:34:27.276Z,30.35
2022-10-31T16:36:54.360Z,31.77
2022-10-31T16:39:21.387Z,31.23
2022-10-31T16:41:51.625Z,31.73
2022-10-31T16:44:22.674Z,33.15
2022-10-31T16:47:05.750Z,32.17
2022-10-31T16:49:32.483Z,32.95
2022-10-31T16:51:59.153Z,31.98
2022-10-31T16:54:25.879Z,28.15
2022-10-31T16:56:52.623Z,31.17
2022-10-31T16:59:19.329Z,29.55
2022-10-31T17:01:49.658Z,30.27
2022-10-31T17:04:16.806Z,30.38
2022-10-31T17:06:43.527Z,29.88
